sensor_id;sensor_type;location;lat;lon;timestamp;P1;durP1;ratioP1;P2;durP2;ratioP2
65461;SDS011;53236;43.666;18.444;2023-02-20T00:00:59;20.93;;;12.50;;
65461;SDS011;53236;43.666;18.444;2023-02-20T00:03:25;19.67;;;10.43;;
65461;SDS011;53236;43.666;18.444;2023-02-20T00:05:51;18.23;;;10.43;;
65461;SDS011;53236;43.666;18.444;2023-02-20T00:08:17;21.50;;;11.00;;
65461;SDS011;53236;43.666;18.444;2023-02-20T00:10:42;24.27;;;13.60;;
65461;SDS011;53236;43.666;18.444;2023-02-20T00:13:08;26.30;;;14.47;;
65461;SDS011;53236;43.666;18.444;2023-02-20T00:15:34;26.33;;;13.47;;
65461;SDS011;53236;43.666;18.444;2023-02-20T00:17:59;37.40;;;19.87;;
65461;SDS011;53236;43.666;18.444;2023-02-20T00:20:25;33.17;;;18.77;;
65461;SDS011;53236;43.666;18.444;2023-02-20T00:22:52;37.07;;;19.77;;
65461;SDS011;53236;43.666;18.444;2023-02-20T00:25:19;30.63;;;17.63;;
65461;SDS011;53236;43.666;18.444;2023-02-20T00:27:45;29.20;;;17.53;;
65461;SDS011;53236;43.666;18.444;2023-02-20T00:30:14;32.53;;;18.43;;
65461;SDS011;53236;43.666;18.444;2023-02-20T00:32:42;29.93;;;17.67;;
65461;SDS011;53236;43.666;18.444;2023-02-20T00:35:11;27.17;;;15.83;;
65461;SDS011;53236;43.666;18.444;2023-02-20T00:37:37;26.87;;;13.70;;
65461;SDS011;53236;43.666;18.444;2023-02-20T00:40:03;23.67;;;13.10;;
65461;SDS011;53236;43.666;18.444;2023-02-20T00:42:29;20.30;;;11.50;;
65461;SDS011;53236;43.666;18.444;2023-02-20T00:44:55;20.07;;;11.83;;
65461;SDS011;53236;43.666;18.444;2023-02-20T00:47:21;23.40;;;12.70;;
65461;SDS011;53236;43.666;18.444;2023-02-20T00:49:47;32.03;;;17.93;;
65461;SDS011;53236;43.666;18.444;2023-02-20T00:52:12;35.33;;;20.27;;
65461;SDS011;53236;43.666;18.444;2023-02-20T00:54:38;29.07;;;15.67;;
65461;SDS011;53236;43.666;18.444;2023-02-20T00:57:04;17.97;;;10.07;;
65461;SDS011;53236;43.666;18.444;2023-02-20T00:59:29;16.60;;;10.80;;
65461;SDS011;53236;43.666;18.444;2023-02-20T01:01:55;22.23;;;12.37;;
65461;SDS011;53236;43.666;18.444;2023-02-20T01:04:21;23.47;;;11.87;;
65461;SDS011;53236;43.666;18.444;2023-02-20T01:06:47;25.57;;;14.10;;
65461;SDS011;53236;43.666;18.444;2023-02-20T01:09:13;23.47;;;13.40;;
65461;SDS011;53236;43.666;18.444;2023-02-20T01:11:40;21.00;;;11.97;;
65461;SDS011;53236;43.666;18.444;2023-02-20T01:14:06;21.03;;;12.60;;
65461;SDS011;53236;43.666;18.444;2023-02-20T01:16:32;22.47;;;11.77;;
65461;SDS011;53236;43.666;18.444;2023-02-20T01:18:58;23.40;;;13.50;;
65461;SDS011;53236;43.666;18.444;2023-02-20T01:21:24;24.17;;;14.10;;
65461;SDS011;53236;43.666;18.444;2023-02-20T01:23:49;32.43;;;16.67;;
65461;SDS011;53236;43.666;18.444;2023-02-20T01:26:15;32.70;;;15.87;;
65461;SDS011;53236;43.666;18.444;2023-02-20T01:28:44;33.73;;;17.30;;
65461;SDS011;53236;43.666;18.444;2023-02-20T01:31:13;47.17;;;19.10;;
65461;SDS011;53236;43.666;18.444;2023-02-20T01:33:41;32.43;;;16.10;;
65461;SDS011;53236;43.666;18.444;2023-02-20T01:36:08;30.97;;;15.63;;
65461;SDS011;53236;43.666;18.444;2023-02-20T01:38:34;36.27;;;19.00;;
65461;SDS011;53236;43.666;18.444;2023-02-20T01:41:00;31.97;;;17.87;;
65461;SDS011;53236;43.666;18.444;2023-02-20T01:43:26;31.23;;;17.60;;
65461;SDS011;53236;43.666;18.444;2023-02-20T01:45:52;33.40;;;17.03;;
65461;SDS011;53236;43.666;18.444;2023-02-20T01:48:22;30.80;;;16.07;;
65461;SDS011;53236;43.666;18.444;2023-02-20T01:50:50;27.93;;;15.93;;
65461;SDS011;53236;43.666;18.444;2023-02-20T01:53:20;35.10;;;17.37;;
65461;SDS011;53236;43.666;18.444;2023-02-20T01:55:52;25.43;;;13.37;;
65461;SDS011;53236;43.666;18.444;2023-02-20T01:58:23;19.03;;;10.07;;
65461;SDS011;53236;43.666;18.444;2023-02-20T02:00:56;18.00;;;9.97;;
65461;SDS011;53236;43.666;18.444;2023-02-20T02:03:24;20.70;;;10.77;;
65461;SDS011;53236;43.666;18.444;2023-02-20T02:05:54;26.23;;;13.70;;
65461;SDS011;53236;43.666;18.444;2023-02-20T02:08:23;25.97;;;13.10;;
65461;SDS011;53236;43.666;18.444;2023-02-20T02:10:56;19.40;;;11.13;;
65461;SDS011;53236;43.666;18.444;2023-02-20T02:13:26;16.67;;;10.45;;
65461;SDS011;53236;43.666;18.444;2023-02-20T02:15:53;27.00;;;13.97;;
65461;SDS011;53236;43.666;18.444;2023-02-20T02:35:54;16.17;;;10.13;;
65461;SDS011;53236;43.666;18.444;2023-02-20T02:41:06;20.63;;;10.30;;
65461;SDS011;53236;43.666;18.444;2023-02-20T02:43:56;16.17;;;9.18;;
65461;SDS011;53236;43.666;18.444;2023-02-20T02:46:38;18.27;;;10.20;;
65461;SDS011;53236;43.666;18.444;2023-02-20T02:49:24;21.10;;;10.13;;
65461;SDS011;53236;43.666;18.444;2023-02-20T02:51:58;18.57;;;9.40;;
65461;SDS011;53236;43.666;18.444;2023-02-20T02:54:25;19.03;;;10.37;;
65461;SDS011;53236;43.666;18.444;2023-02-20T02:56:53;17.47;;;9.20;;
65461;SDS011;53236;43.666;18.444;2023-02-20T02:59:37;17.67;;;9.10;;
65461;SDS011;53236;43.666;18.444;2023-02-20T03:02:04;18.20;;;9.40;;
65461;SDS011;53236;43.666;18.444;2023-02-20T03:04:35;18.17;;;10.80;;
65461;SDS011;53236;43.666;18.444;2023-02-20T03:07:05;18.03;;;9.93;;
65461;SDS011;53236;43.666;18.444;2023-02-20T03:09:44;18.63;;;10.57;;
65461;SDS011;53236;43.666;18.444;2023-02-20T03:12:18;21.00;;;10.20;;
65461;SDS011;53236;43.666;18.444;2023-02-20T03:14:51;33.70;;;14.40;;
65461;SDS011;53236;43.666;18.444;2023-02-20T03:20:18;22.17;;;12.30;;
65461;SDS011;53236;43.666;18.444;2023-02-20T03:22:56;25.17;;;14.23;;
65461;SDS011;53236;43.666;18.444;2023-02-20T03:25:29;23.17;;;13.20;;
65461;SDS011;53236;43.666;18.444;2023-02-20T03:30:48;27.10;;;13.33;;
65461;SDS011;53236;43.666;18.444;2023-02-20T03:33:32;27.43;;;13.93;;
65461;SDS011;53236;43.666;18.444;2023-02-20T03:36:39;25.47;;;14.67;;
65461;SDS011;53236;43.666;18.444;2023-02-20T03:39:35;21.90;;;12.33;;
65461;SDS011;53236;43.666;18.444;2023-02-20T03:42:23;22.83;;;13.27;;
65461;SDS011;53236;43.666;18.444;2023-02-20T03:45:09;25.93;;;14.40;;
65461;SDS011;53236;43.666;18.444;2023-02-20T03:47:37;24.23;;;14.13;;
65461;SDS011;53236;43.666;18.444;2023-02-20T03:50:08;21.33;;;12.57;;
65461;SDS011;53236;43.666;18.444;2023-02-20T03:52:36;24.93;;;13.60;;
65461;SDS011;53236;43.666;18.444;2023-02-20T03:55:02;26.57;;;14.03;;
65461;SDS011;53236;43.666;18.444;2023-02-20T03:57:35;24.37;;;13.97;;
65461;SDS011;53236;43.666;18.444;2023-02-20T04:00:08;22.73;;;13.10;;
65461;SDS011;53236;43.666;18.444;2023-02-20T04:02:41;25.10;;;13.17;;
65461;SDS011;53236;43.666;18.444;2023-02-20T04:05:53;23.77;;;13.67;;
65461;SDS011;53236;43.666;18.444;2023-02-20T04:08:03;40.93;;;21.43;;
65461;SDS011;53236;43.666;18.444;2023-02-20T04:10:43;30.13;;;16.07;;
65461;SDS011;53236;43.666;18.444;2023-02-20T04:13:15;26.60;;;14.50;;
65461;SDS011;53236;43.666;18.444;2023-02-20T04:15:42;26.57;;;15.00;;
65461;SDS011;53236;43.666;18.444;2023-02-20T04:18:18;28.20;;;16.33;;
65461;SDS011;53236;43.666;18.444;2023-02-20T04:20:48;26.33;;;13.83;;
65461;SDS011;53236;43.666;18.444;2023-02-20T04:23:18;26.13;;;14.63;;
65461;SDS011;53236;43.666;18.444;2023-02-20T04:25:46;29.30;;;16.60;;
65461;SDS011;53236;43.666;18.444;2023-02-20T04:28:28;26.93;;;15.93;;
65461;SDS011;53236;43.666;18.444;2023-02-20T04:30:54;28.30;;;16.23;;
65461;SDS011;53236;43.666;18.444;2023-02-20T04:33:20;40.70;;;21.87;;
65461;SDS011;53236;43.666;18.444;2023-02-20T04:35:46;48.73;;;27.53;;
65461;SDS011;53236;43.666;18.444;2023-02-20T04:38:11;42.83;;;23.73;;
65461;SDS011;53236;43.666;18.444;2023-02-20T04:40:37;37.97;;;20.63;;
65461;SDS011;53236;43.666;18.444;2023-02-20T04:43:03;36.50;;;18.80;;
65461;SDS011;53236;43.666;18.444;2023-02-20T04:45:29;38.17;;;20.53;;
65461;SDS011;53236;43.666;18.444;2023-02-20T04:47:55;28.23;;;17.10;;
65461;SDS011;53236;43.666;18.444;2023-02-20T04:50:26;27.47;;;16.13;;
65461;SDS011;53236;43.666;18.444;2023-02-20T04:52:56;33.00;;;16.92;;
65461;SDS011;53236;43.666;18.444;2023-02-20T04:55:22;29.20;;;16.23;;
65461;SDS011;53236;43.666;18.444;2023-02-20T04:57:48;33.20;;;17.60;;
65461;SDS011;53236;43.666;18.444;2023-02-20T05:00:16;32.30;;;17.53;;
65461;SDS011;53236;43.666;18.444;2023-02-20T05:02:42;27.93;;;16.63;;
65461;SDS011;53236;43.666;18.444;2023-02-20T05:05:18;26.23;;;15.97;;
65461;SDS011;53236;43.666;18.444;2023-02-20T05:07:59;30.47;;;16.73;;
65461;SDS011;53236;43.666;18.444;2023-02-20T05:10:27;26.43;;;16.17;;
65461;SDS011;53236;43.666;18.444;2023-02-20T05:12:54;27.57;;;16.20;;
65461;SDS011;53236;43.666;18.444;2023-02-20T05:15:20;31.80;;;20.87;;
65461;SDS011;53236;43.666;18.444;2023-02-20T05:17:46;36.03;;;22.13;;
65461;SDS011;53236;43.666;18.444;2023-02-20T05:20:13;32.73;;;20.03;;
65461;SDS011;53236;43.666;18.444;2023-02-20T05:22:39;28.10;;;16.77;;
65461;SDS011;53236;43.666;18.444;2023-02-20T05:25:05;23.87;;;15.57;;
65461;SDS011;53236;43.666;18.444;2023-02-20T05:27:31;15.10;;;10.73;;
65461;SDS011;53236;43.666;18.444;2023-02-20T05:29:58;15.67;;;9.80;;
65461;SDS011;53236;43.666;18.444;2023-02-20T05:32:25;16.17;;;10.37;;
65461;SDS011;53236;43.666;18.444;2023-02-20T05:34:52;20.90;;;12.03;;
65461;SDS011;53236;43.666;18.444;2023-02-20T05:37:19;19.23;;;11.80;;
65461;SDS011;53236;43.666;18.444;2023-02-20T05:39:46;20.67;;;12.63;;
65461;SDS011;53236;43.666;18.444;2023-02-20T05:42:12;19.10;;;12.50;;
65461;SDS011;53236;43.666;18.444;2023-02-20T05:44:37;21.23;;;13.37;;
65461;SDS011;53236;43.666;18.444;2023-02-20T05:47:04;23.13;;;13.83;;
65461;SDS011;53236;43.666;18.444;2023-02-20T05:49:31;25.63;;;16.30;;
65461;SDS011;53236;43.666;18.444;2023-02-20T05:51:59;31.90;;;21.23;;
65461;SDS011;53236;43.666;18.444;2023-02-20T05:54:25;34.80;;;20.60;;
65461;SDS011;53236;43.666;18.444;2023-02-20T05:56:51;35.40;;;24.00;;
65461;SDS011;53236;43.666;18.444;2023-02-20T05:59:20;41.30;;;25.63;;
65461;SDS011;53236;43.666;18.444;2023-02-20T06:01:47;37.47;;;25.10;;
65461;SDS011;53236;43.666;18.444;2023-02-20T06:04:17;36.70;;;22.93;;
65461;SDS011;53236;43.666;18.444;2023-02-20T06:06:43;31.30;;;21.57;;
65461;SDS011;53236;43.666;18.444;2023-02-20T06:09:10;38.47;;;24.30;;
65461;SDS011;53236;43.666;18.444;2023-02-20T06:11:40;36.13;;;23.80;;
65461;SDS011;53236;43.666;18.444;2023-02-20T06:14:05;33.37;;;21.83;;
65461;SDS011;53236;43.666;18.444;2023-02-20T06:16:32;31.70;;;21.23;;
65461;SDS011;53236;43.666;18.444;2023-02-20T06:18:58;32.63;;;22.00;;
65461;SDS011;53236;43.666;18.444;2023-02-20T06:21:24;40.30;;;24.67;;
65461;SDS011;53236;43.666;18.444;2023-02-20T06:23:51;48.83;;;31.10;;
65461;SDS011;53236;43.666;18.444;2023-02-20T06:26:17;33.90;;;24.53;;
65461;SDS011;53236;43.666;18.444;2023-02-20T06:28:44;29.47;;;24.17;;
65461;SDS011;53236;43.666;18.444;2023-02-20T06:31:11;33.90;;;26.17;;
65461;SDS011;53236;43.666;18.444;2023-02-20T06:33:37;53.20;;;43.13;;
65461;SDS011;53236;43.666;18.444;2023-02-20T06:36:03;37.10;;;29.93;;
65461;SDS011;53236;43.666;18.444;2023-02-20T06:38:29;26.50;;;20.20;;
65461;SDS011;53236;43.666;18.444;2023-02-20T06:40:55;38.33;;;27.50;;
65461;SDS011;53236;43.666;18.444;2023-02-20T06:43:21;30.50;;;23.27;;
65461;SDS011;53236;43.666;18.444;2023-02-20T06:45:47;44.93;;;32.17;;
65461;SDS011;53236;43.666;18.444;2023-02-20T06:48:12;35.53;;;27.53;;
65461;SDS011;53236;43.666;18.444;2023-02-20T06:50:39;38.63;;;31.03;;
65461;SDS011;53236;43.666;18.444;2023-02-20T06:53:06;53.17;;;41.13;;
65461;SDS011;53236;43.666;18.444;2023-02-20T06:55:32;63.20;;;47.63;;
65461;SDS011;53236;43.666;18.444;2023-02-20T06:57:57;75.27;;;50.37;;
65461;SDS011;53236;43.666;18.444;2023-02-20T07:00:23;61.23;;;45.40;;
65461;SDS011;53236;43.666;18.444;2023-02-20T07:02:49;56.70;;;41.13;;
65461;SDS011;53236;43.666;18.444;2023-02-20T07:05:15;37.20;;;26.10;;
65461;SDS011;53236;43.666;18.444;2023-02-20T07:07:41;33.83;;;24.97;;
65461;SDS011;53236;43.666;18.444;2023-02-20T07:10:06;34.20;;;26.97;;
65461;SDS011;53236;43.666;18.444;2023-02-20T07:12:32;28.83;;;23.27;;
65461;SDS011;53236;43.666;18.444;2023-02-20T07:15:02;31.63;;;23.30;;
65461;SDS011;53236;43.666;18.444;2023-02-20T07:17:29;24.90;;;19.90;;
65461;SDS011;53236;43.666;18.444;2023-02-20T07:19:55;21.47;;;15.20;;
65461;SDS011;53236;43.666;18.444;2023-02-20T07:22:21;21.70;;;16.60;;
65461;SDS011;53236;43.666;18.444;2023-02-20T07:24:50;22.13;;;18.23;;
65461;SDS011;53236;43.666;18.444;2023-02-20T07:27:19;40.57;;;27.07;;
65461;SDS011;53236;43.666;18.444;2023-02-20T07:29:46;27.33;;;21.50;;
65461;SDS011;53236;43.666;18.444;2023-02-20T07:32:13;24.70;;;19.35;;
65461;SDS011;53236;43.666;18.444;2023-02-20T07:34:39;23.77;;;18.35;;
65461;SDS011;53236;43.666;18.444;2023-02-20T07:37:05;25.75;;;19.30;;
65461;SDS011;53236;43.666;18.444;2023-02-20T07:39:31;37.60;;;27.90;;
65461;SDS011;53236;43.666;18.444;2023-02-20T07:41:56;31.98;;;23.90;;
65461;SDS011;53236;43.666;18.444;2023-02-20T07:44:22;20.95;;;16.98;;
65461;SDS011;53236;43.666;18.444;2023-02-20T07:46:48;29.52;;;22.67;;
65461;SDS011;53236;43.666;18.444;2023-02-20T07:49:13;25.98;;;20.10;;
65461;SDS011;53236;43.666;18.444;2023-02-20T07:51:39;23.88;;;17.60;;
65461;SDS011;53236;43.666;18.444;2023-02-20T07:54:05;20.35;;;16.92;;
65461;SDS011;53236;43.666;18.444;2023-02-20T07:56:30;23.88;;;20.17;;
65461;SDS011;53236;43.666;18.444;2023-02-20T07:58:56;22.70;;;18.40;;
65461;SDS011;53236;43.666;18.444;2023-02-20T08:01:22;21.65;;;19.35;;
65461;SDS011;53236;43.666;18.444;2023-02-20T08:03:49;18.63;;;13.60;;
65461;SDS011;53236;43.666;18.444;2023-02-20T08:06:18;21.60;;;15.35;;
65461;SDS011;53236;43.666;18.444;2023-02-20T08:08:47;15.25;;;11.90;;
65461;SDS011;53236;43.666;18.444;2023-02-20T08:11:14;17.33;;;13.13;;
65461;SDS011;53236;43.666;18.444;2023-02-20T08:13:42;14.60;;;10.95;;
65461;SDS011;53236;43.666;18.444;2023-02-20T08:16:09;11.68;;;10.23;;
65461;SDS011;53236;43.666;18.444;2023-02-20T08:18:34;16.27;;;12.63;;
65461;SDS011;53236;43.666;18.444;2023-02-20T08:21:00;14.18;;;11.55;;
65461;SDS011;53236;43.666;18.444;2023-02-20T08:23:26;18.45;;;13.77;;
65461;SDS011;53236;43.666;18.444;2023-02-20T08:25:51;16.90;;;15.15;;
65461;SDS011;53236;43.666;18.444;2023-02-20T08:28:17;12.40;;;9.23;;
65461;SDS011;53236;43.666;18.444;2023-02-20T08:30:44;8.05;;;6.45;;
65461;SDS011;53236;43.666;18.444;2023-02-20T08:33:09;4.93;;;4.43;;
65461;SDS011;53236;43.666;18.444;2023-02-20T08:35:35;6.63;;;4.78;;
65461;SDS011;53236;43.666;18.444;2023-02-20T08:38:02;5.88;;;4.40;;
65461;SDS011;53236;43.666;18.444;2023-02-20T08:40:29;6.53;;;5.40;;
65461;SDS011;53236;43.666;18.444;2023-02-20T08:42:55;8.10;;;6.78;;
65461;SDS011;53236;43.666;18.444;2023-02-20T08:45:20;7.03;;;6.32;;
65461;SDS011;53236;43.666;18.444;2023-02-20T08:47:47;5.88;;;5.20;;
65461;SDS011;53236;43.666;18.444;2023-02-20T08:50:13;6.85;;;5.40;;
65461;SDS011;53236;43.666;18.444;2023-02-20T08:52:43;5.38;;;4.45;;
65461;SDS011;53236;43.666;18.444;2023-02-20T08:55:09;8.25;;;7.22;;
65461;SDS011;53236;43.666;18.444;2023-02-20T08:57:36;7.75;;;6.57;;
65461;SDS011;53236;43.666;18.444;2023-02-20T09:00:05;6.40;;;5.18;;
65461;SDS011;53236;43.666;18.444;2023-02-20T09:02:31;6.85;;;5.82;;
65461;SDS011;53236;43.666;18.444;2023-02-20T09:04:57;6.97;;;6.25;;
65461;SDS011;53236;43.666;18.444;2023-02-20T09:07:22;6.88;;;5.85;;
65461;SDS011;53236;43.666;18.444;2023-02-20T09:09:49;8.20;;;7.32;;
65461;SDS011;53236;43.666;18.444;2023-02-20T09:12:14;9.27;;;8.38;;
65461;SDS011;53236;43.666;18.444;2023-02-20T09:14:41;9.07;;;8.00;;
65461;SDS011;53236;43.666;18.444;2023-02-20T09:17:06;9.00;;;7.68;;
65461;SDS011;53236;43.666;18.444;2023-02-20T09:19:32;8.30;;;7.03;;
65461;SDS011;53236;43.666;18.444;2023-02-20T09:21:58;8.32;;;6.90;;
65461;SDS011;53236;43.666;18.444;2023-02-20T09:24:24;7.95;;;7.07;;
65461;SDS011;53236;43.666;18.444;2023-02-20T09:26:55;8.40;;;6.40;;
65461;SDS011;53236;43.666;18.444;2023-02-20T09:29:21;6.15;;;4.95;;
65461;SDS011;53236;43.666;18.444;2023-02-20T09:31:47;6.53;;;5.88;;
65461;SDS011;53236;43.666;18.444;2023-02-20T09:34:13;6.45;;;5.22;;
65461;SDS011;53236;43.666;18.444;2023-02-20T09:36:39;7.10;;;5.07;;
65461;SDS011;53236;43.666;18.444;2023-02-20T09:39:06;6.40;;;4.75;;
65461;SDS011;53236;43.666;18.444;2023-02-20T09:41:41;5.75;;;5.05;;
65461;SDS011;53236;43.666;18.444;2023-02-20T09:46:55;4.65;;;3.58;;
65461;SDS011;53236;43.666;18.444;2023-02-20T09:49:44;4.82;;;4.18;;
65461;SDS011;53236;43.666;18.444;2023-02-20T09:52:11;4.70;;;3.88;;
65461;SDS011;53236;43.666;18.444;2023-02-20T09:54:45;4.93;;;3.83;;
65461;SDS011;53236;43.666;18.444;2023-02-20T09:57:16;5.00;;;3.08;;
65461;SDS011;53236;43.666;18.444;2023-02-20T09:59:47;3.92;;;3.15;;
65461;SDS011;53236;43.666;18.444;2023-02-20T10:02:32;6.90;;;3.60;;
65461;SDS011;53236;43.666;18.444;2023-02-20T10:05:02;6.38;;;3.80;;
65461;SDS011;53236;43.666;18.444;2023-02-20T10:07:49;6.13;;;3.90;;
65461;SDS011;53236;43.666;18.444;2023-02-20T10:10:23;8.57;;;6.65;;
65461;SDS011;53236;43.666;18.444;2023-02-20T10:15:53;3.40;;;2.75;;
65461;SDS011;53236;43.666;18.444;2023-02-20T10:30:42;3.95;;;2.47;;
65461;SDS011;53236;43.666;18.444;2023-02-20T10:33:14;3.47;;;2.78;;
65461;SDS011;53236;43.666;18.444;2023-02-20T10:38:40;2.83;;;2.22;;
65461;SDS011;53236;43.666;18.444;2023-02-20T10:41:23;2.88;;;1.88;;
65461;SDS011;53236;43.666;18.444;2023-02-20T10:44:04;2.50;;;1.83;;
65461;SDS011;53236;43.666;18.444;2023-02-20T10:46:39;3.53;;;2.15;;
65461;SDS011;53236;43.666;18.444;2023-02-20T10:49:35;3.55;;;2.03;;
65461;SDS011;53236;43.666;18.444;2023-02-20T10:52:04;4.38;;;2.80;;
65461;SDS011;53236;43.666;18.444;2023-02-20T10:54:45;4.07;;;2.20;;
65461;SDS011;53236;43.666;18.444;2023-02-20T10:57:24;3.55;;;1.67;;
65461;SDS011;53236;43.666;18.444;2023-02-20T10:59:56;2.50;;;1.70;;
65461;SDS011;53236;43.666;18.444;2023-02-20T11:05:05;2.65;;;2.00;;
65461;SDS011;53236;43.666;18.444;2023-02-20T11:07:42;2.78;;;2.05;;
65461;SDS011;53236;43.666;18.444;2023-02-20T11:10:08;3.00;;;2.30;;
65461;SDS011;53236;43.666;18.444;2023-02-20T11:12:45;4.90;;;2.50;;
65461;SDS011;53236;43.666;18.444;2023-02-20T11:15:15;4.97;;;3.70;;
65461;SDS011;53236;43.666;18.444;2023-02-20T11:17:47;4.28;;;2.00;;
65461;SDS011;53236;43.666;18.444;2023-02-20T11:22:57;6.00;;;3.85;;
65461;SDS011;53236;43.666;18.444;2023-02-20T11:25:27;4.32;;;3.10;;
65461;SDS011;53236;43.666;18.444;2023-02-20T11:28:16;4.47;;;2.63;;
65461;SDS011;53236;43.666;18.444;2023-02-20T11:30:45;1.08;;;0.70;;
65461;SDS011;53236;43.666;18.444;2023-02-20T11:33:17;6.57;;;4.87;;
65461;SDS011;53236;43.666;18.444;2023-02-20T11:35:55;2.97;;;1.87;;
65461;SDS011;53236;43.666;18.444;2023-02-20T11:43:23;3.57;;;2.13;;
65461;SDS011;53236;43.666;18.444;2023-02-20T11:54:05;2.50;;;1.40;;
65461;SDS011;53236;43.666;18.444;2023-02-20T11:56:37;2.57;;;1.40;;
65461;SDS011;53236;43.666;18.444;2023-02-20T12:01:51;2.13;;;1.17;;
65461;SDS011;53236;43.666;18.444;2023-02-20T12:04:19;4.77;;;2.77;;
65461;SDS011;53236;43.666;18.444;2023-02-20T12:06:46;13.27;;;8.70;;
65461;SDS011;53236;43.666;18.444;2023-02-20T12:09:19;4.80;;;2.60;;
65461;SDS011;53236;43.666;18.444;2023-02-20T12:11:50;3.10;;;1.80;;
65461;SDS011;53236;43.666;18.444;2023-02-20T12:14:18;5.43;;;3.87;;
65461;SDS011;53236;43.666;18.444;2023-02-20T12:19:57;3.60;;;1.53;;
65461;SDS011;53236;43.666;18.444;2023-02-20T12:22:34;3.53;;;1.63;;
65461;SDS011;53236;43.666;18.444;2023-02-20T12:35:41;2.33;;;1.38;;
65461;SDS011;53236;43.666;18.444;2023-02-20T12:39:04;3.23;;;1.70;;
65461;SDS011;53236;43.666;18.444;2023-02-20T13:01:00;4.50;;;3.30;;
65461;SDS011;53236;43.666;18.444;2023-02-20T13:11:39;2.90;;;1.80;;
65461;SDS011;53236;43.666;18.444;2023-02-20T13:14:16;7.50;;;4.93;;
65461;SDS011;53236;43.666;18.444;2023-02-20T13:20:30;6.73;;;3.80;;
65461;SDS011;53236;43.666;18.444;2023-02-20T13:23:25;10.90;;;6.67;;
65461;SDS011;53236;43.666;18.444;2023-02-20T13:25:50;9.73;;;5.57;;
65461;SDS011;53236;43.666;18.444;2023-02-20T13:30:45;9.03;;;3.53;;
65461;SDS011;53236;43.666;18.444;2023-02-20T13:33:32;7.40;;;4.63;;
65461;SDS011;53236;43.666;18.444;2023-02-20T13:36:00;12.07;;;8.83;;
65461;SDS011;53236;43.666;18.444;2023-02-20T13:38:26;3.47;;;2.17;;
65461;SDS011;53236;43.666;18.444;2023-02-20T13:56:19;4.63;;;3.10;;
65461;SDS011;53236;43.666;18.444;2023-02-20T13:58:47;4.37;;;2.40;;
65461;SDS011;53236;43.666;18.444;2023-02-20T14:01:14;25.80;;;16.90;;
65461;SDS011;53236;43.666;18.444;2023-02-20T14:03:40;7.20;;;4.50;;
65461;SDS011;53236;43.666;18.444;2023-02-20T14:06:08;14.10;;;7.10;;
65461;SDS011;53236;43.666;18.444;2023-02-20T14:08:36;6.43;;;4.60;;
65461;SDS011;53236;43.666;18.444;2023-02-20T14:11:47;4.43;;;3.40;;
65461;SDS011;53236;43.666;18.444;2023-02-20T14:13:56;15.80;;;10.50;;
65461;SDS011;53236;43.666;18.444;2023-02-20T14:16:30;8.80;;;6.33;;
65461;SDS011;53236;43.666;18.444;2023-02-20T14:19:00;8.98;;;3.50;;
65461;SDS011;53236;43.666;18.444;2023-02-20T14:21:29;9.73;;;6.67;;
65461;SDS011;53236;43.666;18.444;2023-02-20T14:23:57;8.13;;;6.80;;
65461;SDS011;53236;43.666;18.444;2023-02-20T14:26:40;8.50;;;5.30;;
65461;SDS011;53236;43.666;18.444;2023-02-20T14:29:06;5.70;;;4.47;;
65461;SDS011;53236;43.666;18.444;2023-02-20T14:31:46;7.13;;;3.07;;
65461;SDS011;53236;43.666;18.444;2023-02-20T14:34:18;6.00;;;2.73;;
65461;SDS011;53236;43.666;18.444;2023-02-20T14:42:05;5.07;;;3.10;;
65461;SDS011;53236;43.666;18.444;2023-02-20T14:44:46;14.87;;;10.33;;
65461;SDS011;53236;43.666;18.444;2023-02-20T14:47:14;10.77;;;7.77;;
65461;SDS011;53236;43.666;18.444;2023-02-20T14:49:42;6.10;;;4.03;;
65461;SDS011;53236;43.666;18.444;2023-02-20T14:54:35;7.47;;;5.57;;
65461;SDS011;53236;43.666;18.444;2023-02-20T14:57:02;11.13;;;8.40;;
65461;SDS011;53236;43.666;18.444;2023-02-20T15:04:45;5.40;;;3.97;;
65461;SDS011;53236;43.666;18.444;2023-02-20T15:07:22;6.70;;;4.10;;
65461;SDS011;53236;43.666;18.444;2023-02-20T15:09:50;10.97;;;6.50;;
65461;SDS011;53236;43.666;18.444;2023-02-20T15:12:19;9.27;;;5.80;;
65461;SDS011;53236;43.666;18.444;2023-02-20T15:14:55;7.07;;;4.83;;
65461;SDS011;53236;43.666;18.444;2023-02-20T15:17:40;7.00;;;3.73;;
65461;SDS011;53236;43.666;18.444;2023-02-20T15:20:17;9.23;;;4.57;;
65461;SDS011;53236;43.666;18.444;2023-02-20T15:22:44;12.60;;;6.77;;
65461;SDS011;53236;43.666;18.444;2023-02-20T15:25:29;8.50;;;5.23;;
65461;SDS011;53236;43.666;18.444;2023-02-20T15:33:55;5.00;;;3.60;;
65461;SDS011;53236;43.666;18.444;2023-02-20T15:36:21;5.38;;;3.17;;
65461;SDS011;53236;43.666;18.444;2023-02-20T15:38:50;4.17;;;2.17;;
65461;SDS011;53236;43.666;18.444;2023-02-20T15:41:18;4.00;;;2.30;;
65461;SDS011;53236;43.666;18.444;2023-02-20T15:43:45;5.70;;;3.30;;
65461;SDS011;53236;43.666;18.444;2023-02-20T15:46:12;11.70;;;6.20;;
65461;SDS011;53236;43.666;18.444;2023-02-20T15:48:39;50.40;;;26.93;;
65461;SDS011;53236;43.666;18.444;2023-02-20T15:51:05;56.53;;;35.20;;
65461;SDS011;53236;43.666;18.444;2023-02-20T15:53:33;24.30;;;15.83;;
65461;SDS011;53236;43.666;18.444;2023-02-20T15:55:59;10.00;;;6.47;;
65461;SDS011;53236;43.666;18.444;2023-02-20T16:00:54;23.40;;;18.43;;
65461;SDS011;53236;43.666;18.444;2023-02-20T16:03:21;10.83;;;8.07;;
65461;SDS011;53236;43.666;18.444;2023-02-20T16:05:48;13.17;;;6.67;;
65461;SDS011;53236;43.666;18.444;2023-02-20T16:08:14;9.27;;;7.63;;
65461;SDS011;53236;43.666;18.444;2023-02-20T16:10:41;10.17;;;7.20;;
65461;SDS011;53236;43.666;18.444;2023-02-20T16:18:44;15.53;;;10.77;;
65461;SDS011;53236;43.666;18.444;2023-02-20T16:21:13;20.53;;;15.27;;
65461;SDS011;53236;43.666;18.444;2023-02-20T16:23:41;17.73;;;11.93;;
65461;SDS011;53236;43.666;18.444;2023-02-20T16:26:11;20.90;;;14.80;;
65461;SDS011;53236;43.666;18.444;2023-02-20T16:28:37;13.50;;;8.77;;
65461;SDS011;53236;43.666;18.444;2023-02-20T16:31:03;14.57;;;9.10;;
65461;SDS011;53236;43.666;18.444;2023-02-20T16:33:29;14.73;;;8.73;;
65461;SDS011;53236;43.666;18.444;2023-02-20T16:35:55;12.83;;;8.43;;
65461;SDS011;53236;43.666;18.444;2023-02-20T16:38:22;17.67;;;9.87;;
65461;SDS011;53236;43.666;18.444;2023-02-20T16:40:48;14.17;;;7.80;;
65461;SDS011;53236;43.666;18.444;2023-02-20T16:43:18;10.73;;;6.57;;
65461;SDS011;53236;43.666;18.444;2023-02-20T16:45:48;8.10;;;5.10;;
65461;SDS011;53236;43.666;18.444;2023-02-20T16:48:15;7.97;;;4.67;;
65461;SDS011;53236;43.666;18.444;2023-02-20T16:50:42;6.73;;;4.03;;
65461;SDS011;53236;43.666;18.444;2023-02-20T16:53:11;37.13;;;22.67;;
65461;SDS011;53236;43.666;18.444;2023-02-20T16:55:37;34.43;;;21.30;;
65461;SDS011;53236;43.666;18.444;2023-02-20T16:58:06;12.30;;;8.50;;
65461;SDS011;53236;43.666;18.444;2023-02-20T17:00:32;13.57;;;9.37;;
65461;SDS011;53236;43.666;18.444;2023-02-20T17:03:00;15.77;;;10.53;;
65461;SDS011;53236;43.666;18.444;2023-02-20T17:05:28;21.10;;;13.60;;
65461;SDS011;53236;43.666;18.444;2023-02-20T17:07:56;18.60;;;12.93;;
65461;SDS011;53236;43.666;18.444;2023-02-20T17:10:23;20.03;;;12.13;;